createdAt,value
2023-01-27T00:00:32.963Z,-3.46
2023-01-27T00:06:01.442Z,-3.48
2023-01-27T00:11:41.972Z,-3.57
2023-01-27T00:17:07.024Z,-3.60
2023-01-27T00:22:47.687Z,-3.61
2023-01-27T00:28:23.020Z,-3.64
2023-01-27T00:33:54.240Z,-3.68
2023-01-27T00:39:23.132Z,-3.67
2023-01-27T00:45:05.812Z,-3.68
2023-01-27T00:50:36.054Z,-3.65
2023-01-27T00:56:04.717Z,-3.63
2023-01-27T01:01:35.041Z,-3.71
2023-01-27T01:07:04.429Z,-3.66
2023-01-27T01:12:28.409Z,-3.64
2023-01-27T01:17:52.417Z,-3.71
2023-01-27T01:23:23.063Z,-3.67
2023-01-27T01:28:51.916Z,-3.75
2023-01-27T01:34:20.662Z,-3.77
2023-01-27T01:39:51.227Z,-3.78
2023-01-27T01:45:52.897Z,-3.88
2023-01-27T01:51:25.923Z,-3.97
2023-01-27T01:57:03.696Z,-4.02
2023-01-27T02:02:34.945Z,-4.08
2023-01-27T02:08:13.325Z,-4.14
2023-01-27T02:13:44.326Z,-4.13
2023-01-27T02:19:20.091Z,-4.11
2023-01-27T02:24:54.288Z,-4.16
2023-01-27T02:30:25.041Z,-4.18
2023-01-27T02:36:02.057Z,-4.35
2023-01-27T02:41:36.255Z,-4.39
2023-01-27T02:47:06.336Z,-4.38
2023-01-27T02:52:35.779Z,-4.65
2023-01-27T02:58:04.822Z,-4.57
2023-01-27T03:03:47.379Z,-4.48
2023-01-27T03:09:20.866Z,-4.58
2023-01-27T03:15:09.672Z,-4.48
2023-01-27T03:20:40.835Z,-4.40
2023-01-27T03:26:10.985Z,-4.42
2023-01-27T03:31:43.622Z,-4.53
2023-01-27T03:37:31.854Z,-4.58
2023-01-27T03:43:18.120Z,-4.59
2023-01-27T03:48:50.806Z,-4.68
2023-01-27T03:54:21.223Z,-4.60
2023-01-27T03:59:49.683Z,-4.35
2023-01-27T04:05:35.828Z,-4.17
2023-01-27T08:04:52.506Z,-1.97
2023-01-27T08:10:18.920Z,-1.71
2023-01-27T08:15:42.922Z,-1.40
2023-01-27T08:21:11.556Z,-1.08
2023-01-27T08:26:36.226Z,-0.92
2023-01-27T08:32:04.876Z,-0.75
2023-01-27T08:37:35.310Z,-0.76
2023-01-27T08:43:05.097Z,-0.58
2023-01-27T08:48:34.716Z,-0.44
2023-01-27T08:54:05.469Z,-0.40
2023-01-27T08:59:35.177Z,-0.35
2023-01-27T09:04:59.029Z,-0.15
2023-01-27T09:10:26.866Z,-0.09
2023-01-27T09:15:55.829Z,-0.12
2023-01-27T09:21:18.936Z,-0.01
2023-01-27T09:26:44.905Z,0.14
2023-01-27T09:32:12.527Z,0.27
2023-01-27T09:37:48.016Z,0.37
2023-01-27T09:43:35.684Z,0.21
2023-01-27T09:49:28.783Z,0.43
2023-01-27T09:55:04.427Z,0.60
2023-01-27T10:00:39.087Z,0.72
2023-01-27T10:06:28.165Z,0.94
2023-01-27T10:12:04.154Z,1.08
2023-01-27T10:17:48.042Z,1.17
2023-01-27T10:23:30.935Z,1.35
2023-01-27T10:29:09.691Z,1.24
2023-01-27T10:34:49.894Z,1.20
2023-01-27T10:40:27.292Z,1.23
2023-01-27T10:46:05.714Z,1.27
2023-01-27T10:51:41.376Z,1.37
2023-01-27T10:57:15.992Z,1.41
2023-01-27T11:02:52.977Z,1.46
2023-01-27T11:08:28.073Z,1.28
2023-01-27T11:14:04.842Z,1.33
2023-01-27T11:19:57.765Z,1.38
2023-01-27T11:25:35.584Z,1.33
2023-01-27T11:31:12.887Z,1.28
2023-01-27T11:36:41.811Z,1.28
2023-01-27T11:42:13.294Z,1.29
2023-01-27T11:47:44.386Z,1.43
2023-01-27T11:53:17.976Z,1.36
2023-01-27T11:58:52.752Z,1.36
2023-01-27T12:04:27.002Z,1.44
2023-01-27T12:09:56.054Z,1.61
2023-01-27T12:15:29.213Z,1.77
2023-01-27T12:21:01.273Z,2.00
2023-01-27T12:26:36.842Z,2.07
2023-01-27T12:32:16.184Z,2.16
2023-01-27T12:37:45.224Z,2.49
2023-01-27T12:43:16.069Z,2.82
2023-01-27T12:48:50.734Z,3.15
2023-01-27T12:54:23.437Z,3.41
2023-01-27T12:59:56.704Z,3.59
2023-01-27T17:08:35.512Z,-0.18
2023-01-27T17:14:21.342Z,-0.14
2023-01-27T17:19:56.642Z,-0.14
2023-01-27T17:25:31.874Z,-0.07
2023-01-27T17:31:07.520Z,-0.11
2023-01-27T17:36:39.449Z,-0.08
2023-01-27T17:42:05.125Z,-0.11
2023-01-27T17:47:32.195Z,-0.16
2023-01-27T17:53:03.698Z,-0.16
2023-01-27T17:58:29.785Z,-0.26
2023-01-27T18:03:58.629Z,-0.38
2023-01-27T18:09:28.420Z,-0.43
2023-01-27T18:14:59.753Z,-0.50
2023-01-27T18:20:30.103Z,-0.54
2023-01-27T18:26:04.919Z,-0.64
2023-01-27T18:31:39.740Z,-0.72
2023-01-27T18:37:26.201Z,-0.73
2023-01-27T18:42:58.584Z,-0.75
2023-01-27T18:48:23.493Z,-0.77
2023-01-27T18:53:52.844Z,-0.80
2023-01-27T18:59:25.950Z,-0.88
2023-01-27T19:04:58.466Z,-0.96
2023-01-27T19:10:43.441Z,-1.09
2023-01-27T19:16:12.147Z,-1.14
2023-01-27T19:21:43.046Z,-1.15
2023-01-27T19:27:13.295Z,-1.19
2023-01-27T19:32:42.438Z,-1.31
2023-01-27T19:38:13.966Z,-1.36
2023-01-27T19:43:42.773Z,-1.35
2023-01-27T19:49:17.020Z,-1.35
2023-01-27T19:54:47.000Z,-1.40
2023-01-27T20:00:24.810Z,-1.53
2023-01-27T20:05:53.565Z,-1.54
2023-01-27T20:11:32.696Z,-1.67
2023-01-27T20:17:01.657Z,-1.72
2023-01-27T20:22:30.469Z,-1.73
2023-01-27T20:28:03.517Z,-1.73
2023-01-27T20:33:32.711Z,-1.76
2023-01-27T20:39:01.896Z,-1.77
2023-01-27T20:44:32.202Z,-1.85
2023-01-27T20:50:01.545Z,-1.91
2023-01-27T20:55:31.414Z,-1.94
2023-01-27T21:01:09.789Z,-1.94
2023-01-27T21:06:38.592Z,-1.97
2023-01-27T21:12:08.012Z,-2.08
2023-01-27T21:17:38.528Z,-2.03
2023-01-27T21:23:07.537Z,-2.08
2023-01-27T21:28:37.178Z,-2.15
2023-01-27T21:34:10.258Z,-2.40
2023-01-27T21:39:39.669Z,-2.45
2023-01-27T21:45:18.223Z,-2.57
2023-01-27T21:50:52.963Z,-2.58
2023-01-27T21:56:23.802Z,-2.63
2023-01-27T22:01:55.297Z,-2.61
